sensor_id;sensor_type;location;lat;lon;timestamp;pressure;altitude;pressure_sealevel;temperature;humidity
23172;BME280;11754;42.664;23.594;2022-10-04T00:02:25;95612.69;;;10.85;72.13
23172;BME280;11754;42.664;23.594;2022-10-04T00:04:39;95603.78;;;10.77;72.21
23172;BME280;11754;42.664;23.594;2022-10-04T00:07:15;95596.56;;;10.71;71.96
23172;BME280;11754;42.664;23.594;2022-10-04T00:09:49;95603.78;;;10.69;72.44
23172;BME280;11754;42.664;23.594;2022-10-04T00:12:36;95599.47;;;10.60;72.17
23172;BME280;11754;42.664;23.594;2022-10-04T00:15:13;95617.63;;;10.55;72.62
23172;BME280;11754;42.664;23.594;2022-10-04T00:17:41;95611.03;;;10.51;72.50
23172;BME280;11754;42.664;23.594;2022-10-04T00:25:50;95596.16;;;10.33;73.12
23172;BME280;11754;42.664;23.594;2022-10-04T00:33:35;95585.19;;;10.12;74.25
23172;BME280;11754;42.664;23.594;2022-10-04T00:41:37;95583.19;;;10.06;74.22
23172;BME280;11754;42.664;23.594;2022-10-04T00:44:09;95580.91;;;10.03;74.63
23172;BME280;11754;42.664;23.594;2022-10-04T00:46:41;95576.25;;;9.97;74.61
23172;BME280;11754;42.664;23.594;2022-10-04T00:49:09;95579.03;;;9.95;74.77
23172;BME280;11754;42.664;23.594;2022-10-04T00:51:45;95562.56;;;9.85;74.96
23172;BME280;11754;42.664;23.594;2022-10-04T00:54:33;95575.25;;;9.90;74.63
23172;BME280;11754;42.664;23.594;2022-10-04T00:59:40;95580.13;;;9.76;75.03
23172;BME280;11754;42.664;23.594;2022-10-04T01:05:25;95577.13;;;9.63;75.17
23172;BME280;11754;42.664;23.594;2022-10-04T01:10:32;95565.19;;;9.43;76.07
23172;BME280;11754;42.664;23.594;2022-10-04T01:25:55;95585.78;;;9.21;76.72
23172;BME280;11754;42.664;23.594;2022-10-04T01:28:20;95588.59;;;9.20;76.88
23172;BME280;11754;42.664;23.594;2022-10-04T01:30:46;95594.97;;;9.17;77.13
23172;BME280;11754;42.664;23.594;2022-10-04T01:33:11;95588.06;;;9.16;77.39
23172;BME280;11754;42.664;23.594;2022-10-04T01:35:37;95590.00;;;9.14;77.91
23172;BME280;11754;42.664;23.594;2022-10-04T01:38:03;95592.81;;;9.12;77.96
23172;BME280;11754;42.664;23.594;2022-10-04T01:40:44;95581.75;;;9.09;78.08
23172;BME280;11754;42.664;23.594;2022-10-04T01:43:14;95588.38;;;9.13;77.95
23172;BME280;11754;42.664;23.594;2022-10-04T01:45:48;95593.31;;;9.16;78.04
23172;BME280;11754;42.664;23.594;2022-10-04T01:48:20;95576.03;;;9.13;78.12
23172;BME280;11754;42.664;23.594;2022-10-04T01:53:28;95589.09;;;9.23;78.00
23172;BME280;11754;42.664;23.594;2022-10-04T01:56:03;95581.19;;;9.23;77.92
23172;BME280;11754;42.664;23.594;2022-10-04T01:58:38;95578.91;;;9.28;77.59
23172;BME280;11754;42.664;23.594;2022-10-04T02:01:54;95586.50;;;9.31;77.28
23172;BME280;11754;42.664;23.594;2022-10-04T02:04:07;95588.16;;;9.32;77.52
23172;BME280;11754;42.664;23.594;2022-10-04T02:06:37;95577.72;;;9.23;77.23
23172;BME280;11754;42.664;23.594;2022-10-04T02:09:12;95578.56;;;9.23;77.22
23172;BME280;11754;42.664;23.594;2022-10-04T02:11:40;95574.53;;;9.11;77.21
23172;BME280;11754;42.664;23.594;2022-10-04T02:14:13;95578.19;;;9.18;77.15
23172;BME280;11754;42.664;23.594;2022-10-04T02:16:44;95574.53;;;9.11;77.00
23172;BME280;11754;42.664;23.594;2022-10-04T02:19:11;95583.72;;;9.07;76.96
23172;BME280;11754;42.664;23.594;2022-10-04T02:21:37;95584.22;;;9.10;76.60
23172;BME280;11754;42.664;23.594;2022-10-04T02:24:04;95588.88;;;9.17;76.78
23172;BME280;11754;42.664;23.594;2022-10-04T02:26:31;95594.97;;;9.17;76.28
23172;BME280;11754;42.664;23.594;2022-10-04T02:28:57;95596.63;;;9.18;76.07
23172;BME280;11754;42.664;23.594;2022-10-04T02:31:23;95590.31;;;9.11;76.03
23172;BME280;11754;42.664;23.594;2022-10-04T02:34:07;95595.88;;;9.08;75.33
23172;BME280;11754;42.664;23.594;2022-10-04T02:36:34;95587.63;;;9.03;76.00
23172;BME280;11754;42.664;23.594;2022-10-04T02:39:14;95598.53;;;8.90;76.34
23172;BME280;11754;42.664;23.594;2022-10-04T02:41:45;95597.19;;;8.86;76.70
23172;BME280;11754;42.664;23.594;2022-10-04T02:46:55;95603.59;;;8.83;76.97
23172;BME280;11754;42.664;23.594;2022-10-04T02:49:33;95613.56;;;8.80;77.15
23172;BME280;11754;42.664;23.594;2022-10-04T02:52:13;95620.00;;;8.77;77.24
23172;BME280;11754;42.664;23.594;2022-10-04T02:57:28;95625.47;;;8.84;76.72
23172;BME280;11754;42.664;23.594;2022-10-04T03:00:19;95634.03;;;8.86;76.89
23172;BME280;11754;42.664;23.594;2022-10-04T03:05:32;95631.53;;;9.02;76.40
23172;BME280;11754;42.664;23.594;2022-10-04T03:07:58;95645.53;;;9.03;76.24
23172;BME280;11754;42.664;23.594;2022-10-04T03:10:24;95646.56;;;9.10;76.19
23172;BME280;11754;42.664;23.594;2022-10-04T03:12:50;95647.09;;;9.13;76.05
23172;BME280;11754;42.664;23.594;2022-10-04T03:15:18;95654.38;;;9.20;76.21
23172;BME280;11754;42.664;23.594;2022-10-04T03:17:44;95655.25;;;9.28;76.01
23172;BME280;11754;42.664;23.594;2022-10-04T03:20:11;95650.81;;;9.29;75.68
23172;BME280;11754;42.664;23.594;2022-10-04T03:22:43;95665.34;;;9.41;75.06
23172;BME280;11754;42.664;23.594;2022-10-04T03:25:21;95651.78;;;9.54;74.90
23172;BME280;11754;42.664;23.594;2022-10-04T03:27:49;95650.50;;;9.58;74.88
23172;BME280;11754;42.664;23.594;2022-10-04T03:30:16;95664.38;;;9.68;74.50
23172;BME280;11754;42.664;23.594;2022-10-04T03:32:45;95656.19;;;9.71;73.88
23172;BME280;11754;42.664;23.594;2022-10-04T03:35:37;95657.22;;;9.78;73.56
23172;BME280;11754;42.664;23.594;2022-10-04T03:38:06;95656.25;;;9.87;73.31
23172;BME280;11754;42.664;23.594;2022-10-04T03:40:35;95655.13;;;9.90;73.14
23172;BME280;11754;42.664;23.594;2022-10-04T03:43:03;95653.59;;;9.87;73.58
23172;BME280;11754;42.664;23.594;2022-10-04T03:45:30;95645.03;;;9.77;73.53
23172;BME280;11754;42.664;23.594;2022-10-04T03:48:02;95651.78;;;9.88;73.30
23172;BME280;11754;42.664;23.594;2022-10-04T03:50:33;95657.94;;;9.97;73.37
23172;BME280;11754;42.664;23.594;2022-10-04T03:53:17;95645.59;;;9.97;73.20
23172;BME280;11754;42.664;23.594;2022-10-04T03:55:48;95656.34;;;10.04;73.10
23172;BME280;11754;42.664;23.594;2022-10-04T03:58:15;95667.19;;;10.01;73.08
23172;BME280;11754;42.664;23.594;2022-10-04T04:00:45;95672.28;;;10.02;72.81
23172;BME280;11754;42.664;23.594;2022-10-04T04:03:15;95677.03;;;9.99;72.82
23172;BME280;11754;42.664;23.594;2022-10-04T04:05:49;95672.78;;;9.98;72.53
23172;BME280;11754;42.664;23.594;2022-10-04T04:08:31;95676.03;;;9.92;73.09
23172;BME280;11754;42.664;23.594;2022-10-04T04:10:58;95661.50;;;9.87;73.22
23172;BME280;11754;42.664;23.594;2022-10-04T04:13:41;95675.06;;;9.93;73.23
23172;BME280;11754;42.664;23.594;2022-10-04T04:16:10;95684.00;;;10.00;73.08
23172;BME280;11754;42.664;23.594;2022-10-04T04:18:39;95677.22;;;9.97;72.86
23172;BME280;11754;42.664;23.594;2022-10-04T04:21:07;95688.25;;;10.01;73.11
23172;BME280;11754;42.664;23.594;2022-10-04T04:23:36;95686.94;;;9.97;73.15
23172;BME280;11754;42.664;23.594;2022-10-04T04:26:29;95691.25;;;10.06;72.71
23172;BME280;11754;42.664;23.594;2022-10-04T04:29:15;95697.88;;;10.10;72.90
23172;BME280;11754;42.664;23.594;2022-10-04T04:31:46;95688.47;;;10.07;72.76
23172;BME280;11754;42.664;23.594;2022-10-04T04:34:20;95705.63;;;10.11;72.94
23172;BME280;11754;42.664;23.594;2022-10-04T04:36:46;95692.53;;;10.02;72.73
23172;BME280;11754;42.664;23.594;2022-10-04T04:39:19;95703.16;;;10.10;72.74
23172;BME280;11754;42.664;23.594;2022-10-04T04:50:17;95695.91;;;10.12;72.18
23172;BME280;11754;42.664;23.594;2022-10-04T04:52:52;95708.13;;;10.21;72.03
23172;BME280;11754;42.664;23.594;2022-10-04T04:55:31;95699.59;;;10.27;71.95
23172;BME280;11754;42.664;23.594;2022-10-04T04:57:58;95703.13;;;10.36;71.79
23172;BME280;11754;42.664;23.594;2022-10-04T05:00:29;95707.91;;;10.41;71.46
23172;BME280;11754;42.664;23.594;2022-10-04T05:03:00;95707.25;;;10.39;71.79
23172;BME280;11754;42.664;23.594;2022-10-04T05:05:31;95713.88;;;10.43;71.66
23172;BME280;11754;42.664;23.594;2022-10-04T05:08:10;95708.94;;;10.56;71.74
23172;BME280;11754;42.664;23.594;2022-10-04T05:10:39;95703.53;;;10.57;70.97
23172;BME280;11754;42.664;23.594;2022-10-04T05:13:08;95695.28;;;10.61;70.79
23172;BME280;11754;42.664;23.594;2022-10-04T05:15:36;95701.06;;;10.64;70.48
23172;BME280;11754;42.664;23.594;2022-10-04T05:18:14;95712.88;;;10.52;70.89
23172;BME280;11754;42.664;23.594;2022-10-04T05:20:50;95706.59;;;10.45;71.09
23172;BME280;11754;42.664;23.594;2022-10-04T05:23:17;95711.50;;;10.31;71.84
23172;BME280;11754;42.664;23.594;2022-10-04T05:25:43;95712.66;;;10.29;71.93
23172;BME280;11754;42.664;23.594;2022-10-04T05:28:10;95718.81;;;10.20;72.14
23172;BME280;11754;42.664;23.594;2022-10-04T05:30:44;95717.25;;;10.27;72.66
23172;BME280;11754;42.664;23.594;2022-10-04T05:33:16;95715.81;;;10.41;72.17
23172;BME280;11754;42.664;23.594;2022-10-04T05:41:05;95736.09;;;10.99;70.28
23172;BME280;11754;42.664;23.594;2022-10-04T05:43:44;95737.28;;;11.13;69.97
23172;BME280;11754;42.664;23.594;2022-10-04T05:46:14;95740.59;;;11.23;69.42
23172;BME280;11754;42.664;23.594;2022-10-04T05:48:42;95737.28;;;11.13;69.64
23172;BME280;11754;42.664;23.594;2022-10-04T05:51:19;95749.34;;;11.23;69.00
23172;BME280;11754;42.664;23.594;2022-10-04T05:53:47;95735.63;;;11.28;69.21
23172;BME280;11754;42.664;23.594;2022-10-04T05:59:00;95762.06;;;11.44;68.68
23172;BME280;11754;42.664;23.594;2022-10-04T06:04:45;95757.25;;;11.81;67.67
23172;BME280;11754;42.664;23.594;2022-10-04T06:21:12;95782.22;;;12.58;65.09
23172;BME280;11754;42.664;23.594;2022-10-04T06:24:09;95784.84;;;12.66;64.42
23172;BME280;11754;42.664;23.594;2022-10-04T06:26:42;95781.66;;;12.79;64.53
23172;BME280;11754;42.664;23.594;2022-10-04T06:29:16;95787.97;;;13.09;63.84
23172;BME280;11754;42.664;23.594;2022-10-04T06:32:05;95785.44;;;13.24;62.71
23172;BME280;11754;42.664;23.594;2022-10-04T06:56:03;95786.50;;;14.81;56.70
23172;BME280;11754;42.664;23.594;2022-10-04T06:58:57;95791.63;;;14.97;56.56
23172;BME280;11754;42.664;23.594;2022-10-04T07:01:34;95790.31;;;15.08;55.17
23172;BME280;11754;42.664;23.594;2022-10-04T07:04:14;95782.81;;;15.11;54.61
23172;BME280;11754;42.664;23.594;2022-10-04T07:10:28;95788.16;;;15.54;53.22
23172;BME280;11754;42.664;23.594;2022-10-04T07:15:35;95797.75;;;15.34;52.68
23172;BME280;11754;42.664;23.594;2022-10-04T07:18:13;95777.25;;;15.28;53.19
23172;BME280;11754;42.664;23.594;2022-10-04T07:20:40;95789.22;;;15.38;53.31
23172;BME280;11754;42.664;23.594;2022-10-04T07:23:13;95791.88;;;15.60;53.76
23172;BME280;11754;42.664;23.594;2022-10-04T07:25:47;95789.69;;;15.85;52.64
23172;BME280;11754;42.664;23.594;2022-10-04T07:28:18;95795.22;;;16.12;51.34
23172;BME280;11754;42.664;23.594;2022-10-04T07:31:27;95792.63;;;16.46;51.45
23172;BME280;11754;42.664;23.594;2022-10-04T07:33:58;95785.53;;;16.88;49.09
23172;BME280;11754;42.664;23.594;2022-10-04T07:36:45;95806.22;;;16.86;48.16
23172;BME280;11754;42.664;23.594;2022-10-04T07:39:20;95794.94;;;16.84;46.89
23172;BME280;11754;42.664;23.594;2022-10-04T07:41:53;95791.72;;;16.95;47.52
23172;BME280;11754;42.664;23.594;2022-10-04T07:47:01;95796.22;;;17.01;46.84
23172;BME280;11754;42.664;23.594;2022-10-04T07:49:28;95810.25;;;17.23;46.40
23172;BME280;11754;42.664;23.594;2022-10-04T07:52:09;95793.13;;;17.52;46.15
23172;BME280;11754;42.664;23.594;2022-10-04T07:54:50;95806.97;;;17.76;44.85
23172;BME280;11754;42.664;23.594;2022-10-04T08:05:39;95804.50;;;20.09;40.22
23172;BME280;11754;42.664;23.594;2022-10-04T08:11:08;95796.75;;;20.51;38.74
23172;BME280;11754;42.664;23.594;2022-10-04T08:33:02;95783.97;;;21.26;35.40
23172;BME280;11754;42.664;23.594;2022-10-04T08:36:14;95779.47;;;21.20;36.02
23172;BME280;11754;42.664;23.594;2022-10-04T08:38:48;95784.25;;;21.55;35.02
23172;BME280;11754;42.664;23.594;2022-10-04T08:56:07;95791.41;;;23.72;30.85
23172;BME280;11754;42.664;23.594;2022-10-04T09:26:44;95779.09;;;27.89;24.10
23172;BME280;11754;42.664;23.594;2022-10-04T09:35:08;95791.50;;;26.05;26.62
23172;BME280;11754;42.664;23.594;2022-10-04T09:40:59;95799.19;;;23.86;28.58
23172;BME280;11754;42.664;23.594;2022-10-04T09:49:30;95817.97;;;23.81;29.04
23172;BME280;11754;42.664;23.594;2022-10-04T09:57:26;95820.88;;;23.39;29.39
23172;BME280;11754;42.664;23.594;2022-10-04T10:00:10;95798.97;;;22.60;30.94
23172;BME280;11754;42.664;23.594;2022-10-04T10:05:22;95812.44;;;22.95;30.99
23172;BME280;11754;42.664;23.594;2022-10-04T10:17:37;95813.69;;;22.34;31.52
23172;BME280;11754;42.664;23.594;2022-10-04T10:22:56;95823.59;;;21.61;32.98
23172;BME280;11754;42.664;23.594;2022-10-04T10:28:50;95822.75;;;20.69;33.56
23172;BME280;11754;42.664;23.594;2022-10-04T10:34:14;95818.38;;;20.74;34.43
23172;BME280;11754;42.664;23.594;2022-10-04T10:37:13;95820.00;;;20.75;33.60
23172;BME280;11754;42.664;23.594;2022-10-04T10:40:06;95823.81;;;20.86;34.14
23172;BME280;11754;42.664;23.594;2022-10-04T10:45:49;95819.31;;;20.61;33.98
23172;BME280;11754;42.664;23.594;2022-10-04T10:50:53;95816.06;;;20.03;34.65
23172;BME280;11754;42.664;23.594;2022-10-04T10:53:54;95830.91;;;19.60;36.08
23172;BME280;11754;42.664;23.594;2022-10-04T10:56:36;95821.91;;;20.18;35.49
23172;BME280;11754;42.664;23.594;2022-10-04T10:59:17;95823.31;;;20.27;35.01
23172;BME280;11754;42.664;23.594;2022-10-04T11:05:14;95825.78;;;21.82;32.37
23172;BME280;11754;42.664;23.594;2022-10-04T11:07:59;95817.44;;;20.62;34.23
23172;BME280;11754;42.664;23.594;2022-10-04T11:41:26;95804.97;;;29.64;22.06
23172;BME280;11754;42.664;23.594;2022-10-04T11:46:52;95811.53;;;27.69;24.13
23172;BME280;11754;42.664;23.594;2022-10-04T12:00:13;95806.81;;;23.08;28.91
23172;BME280;11754;42.664;23.594;2022-10-04T12:50:06;95772.66;;;49.93;7.30
23172;BME280;11754;42.664;23.594;2022-10-04T12:52:45;95761.78;;;48.91;7.71
23172;BME280;11754;42.664;23.594;2022-10-04T12:58:03;95774.47;;;44.19;10.22
23172;BME280;11754;42.664;23.594;2022-10-04T13:00:39;95769.41;;;43.72;10.25
23172;BME280;11754;42.664;23.594;2022-10-04T13:06:20;95779.63;;;39.61;12.64
23172;BME280;11754;42.664;23.594;2022-10-04T13:09:08;95785.53;;;36.99;14.28
23172;BME280;11754;42.664;23.594;2022-10-04T13:12:00;95781.72;;;36.22;14.80
23172;BME280;11754;42.664;23.594;2022-10-04T13:14:32;95788.63;;;35.45;15.77
23172;BME280;11754;42.664;23.594;2022-10-04T13:17:47;95796.53;;;34.39;16.57
23172;BME280;11754;42.664;23.594;2022-10-04T13:22:32;95795.00;;;31.54;20.26
23172;BME280;11754;42.664;23.594;2022-10-04T13:28:00;95808.66;;;29.88;23.58
23172;BME280;11754;42.664;23.594;2022-10-04T13:30:46;95805.06;;;30.43;22.49
23172;BME280;11754;42.664;23.594;2022-10-04T13:49:46;95842.88;;;24.84;32.23
23172;BME280;11754;42.664;23.594;2022-10-04T13:55:25;95847.16;;;23.60;34.34
23172;BME280;11754;42.664;23.594;2022-10-04T14:01:20;95830.63;;;22.46;35.87
23172;BME280;11754;42.664;23.594;2022-10-04T14:04:27;95820.84;;;22.10;36.02
23172;BME280;11754;42.664;23.594;2022-10-04T14:10:16;95837.03;;;22.03;37.28
23172;BME280;11754;42.664;23.594;2022-10-04T14:32:44;95851.81;;;24.67;32.31
23172;BME280;11754;42.664;23.594;2022-10-04T14:35:33;95850.63;;;24.30;32.80
23172;BME280;11754;42.664;23.594;2022-10-04T14:46:26;95860.56;;;23.32;31.76
23172;BME280;11754;42.664;23.594;2022-10-04T14:51:43;95861.13;;;24.77;29.21
23172;BME280;11754;42.664;23.594;2022-10-04T15:11:07;95862.19;;;29.08;22.70
23172;BME280;11754;42.664;23.594;2022-10-04T15:13:50;95866.75;;;27.58;24.06
23172;BME280;11754;42.664;23.594;2022-10-04T15:16:54;95880.88;;;25.99;26.22
23172;BME280;11754;42.664;23.594;2022-10-04T15:32:32;95912.84;;;20.06;34.98
23172;BME280;11754;42.664;23.594;2022-10-04T15:38:02;95905.38;;;18.99;37.50
23172;BME280;11754;42.664;23.594;2022-10-04T15:40:56;95919.38;;;18.47;38.52
23172;BME280;11754;42.664;23.594;2022-10-04T15:43:32;95933.50;;;17.67;40.57
23172;BME280;11754;42.664;23.594;2022-10-04T15:46:39;95928.44;;;17.37;41.59
23172;BME280;11754;42.664;23.594;2022-10-04T16:03:15;95961.38;;;16.02;44.57
23172;BME280;11754;42.664;23.594;2022-10-04T16:32:16;96016.28;;;15.74;47.96
23172;BME280;11754;42.664;23.594;2022-10-04T16:34:52;96021.59;;;15.74;48.40
23172;BME280;11754;42.664;23.594;2022-10-04T16:37:55;96026.34;;;15.78;48.34
23172;BME280;11754;42.664;23.594;2022-10-04T16:43:01;96033.41;;;15.71;47.42
23172;BME280;11754;42.664;23.594;2022-10-04T16:56:20;96038.59;;;15.65;48.97
23172;BME280;11754;42.664;23.594;2022-10-04T16:59:05;96055.69;;;15.70;48.61
23172;BME280;11754;42.664;23.594;2022-10-04T17:01:42;96055.91;;;15.69;48.92
23172;BME280;11754;42.664;23.594;2022-10-04T17:04:23;96051.28;;;15.62;48.76
23172;BME280;11754;42.664;23.594;2022-10-04T17:07:17;96058.91;;;15.66;48.93
23172;BME280;11754;42.664;23.594;2022-10-04T17:09:57;96071.53;;;15.63;49.96
23172;BME280;11754;42.664;23.594;2022-10-04T17:26:13;96086.66;;;15.48;51.01
23172;BME280;11754;42.664;23.594;2022-10-04T17:31:39;96089.47;;;15.47;50.53
23172;BME280;11754;42.664;23.594;2022-10-04T17:47:18;96112.06;;;15.13;51.87
23172;BME280;11754;42.664;23.594;2022-10-04T17:50:04;96113.19;;;15.19;51.74
23172;BME280;11754;42.664;23.594;2022-10-04T17:53:08;96116.69;;;15.34;51.51
23172;BME280;11754;42.664;23.594;2022-10-04T17:55:55;96120.06;;;15.28;51.55
23172;BME280;11754;42.664;23.594;2022-10-04T17:58:36;96120.25;;;15.26;51.43
23172;BME280;11754;42.664;23.594;2022-10-04T18:01:24;96123.16;;;15.17;51.31
23172;BME280;11754;42.664;23.594;2022-10-04T18:03:57;96117.59;;;15.03;51.91
23172;BME280;11754;42.664;23.594;2022-10-04T18:09:32;96120.66;;;15.00;52.21
23172;BME280;11754;42.664;23.594;2022-10-04T18:12:04;96114.13;;;15.03;52.24
23172;BME280;11754;42.664;23.594;2022-10-04T18:17:03;96136.56;;;15.00;53.16
23172;BME280;11754;42.664;23.594;2022-10-04T18:19:50;96128.00;;;14.90;53.64
23172;BME280;11754;42.664;23.594;2022-10-04T18:22:24;96142.81;;;14.84;54.16
23172;BME280;11754;42.664;23.594;2022-10-04T18:30:49;96138.66;;;14.82;54.59
23172;BME280;11754;42.664;23.594;2022-10-04T18:33:20;96143.63;;;14.85;54.73
23172;BME280;11754;42.664;23.594;2022-10-04T18:36:19;96151.59;;;14.85;54.51
23172;BME280;11754;42.664;23.594;2022-10-04T18:41:41;96154.13;;;14.78;54.31
23172;BME280;11754;42.664;23.594;2022-10-04T18:44:19;96152.34;;;14.71;54.54
23172;BME280;11754;42.664;23.594;2022-10-04T18:46:45;96158.38;;;14.64;55.02
23172;BME280;11754;42.664;23.594;2022-10-04T18:54:45;96171.06;;;14.54;55.48
23172;BME280;11754;42.664;23.594;2022-10-04T18:57:37;96154.75;;;14.49;55.67
23172;BME280;11754;42.664;23.594;2022-10-04T19:00:22;96172.03;;;14.53;55.71
23172;BME280;11754;42.664;23.594;2022-10-04T19:03:43;96181.31;;;14.49;56.12
23172;BME280;11754;42.664;23.594;2022-10-04T19:06:39;96175.19;;;14.49;56.27
23172;BME280;11754;42.664;23.594;2022-10-04T19:09:20;96179.19;;;14.45;56.57
23172;BME280;11754;42.664;23.594;2022-10-04T19:11:53;96177.53;;;14.43;56.00
23172;BME280;11754;42.664;23.594;2022-10-04T19:17:40;96176.84;;;14.10;56.93
23172;BME280;11754;42.664;23.594;2022-10-04T19:23:07;96186.50;;;13.87;59.04
23172;BME280;11754;42.664;23.594;2022-10-04T19:26:03;96189.69;;;13.66;59.75
23172;BME280;11754;42.664;23.594;2022-10-04T19:28:35;96190.88;;;13.63;60.06
23172;BME280;11754;42.664;23.594;2022-10-04T19:31:21;96195.66;;;13.52;60.81
23172;BME280;11754;42.664;23.594;2022-10-04T19:33:56;96187.91;;;13.42;61.02
23172;BME280;11754;42.664;23.594;2022-10-04T19:36:46;96199.34;;;13.34;61.46
23172;BME280;11754;42.664;23.594;2022-10-04T19:41:53;96196.13;;;13.14;62.42
23172;BME280;11754;42.664;23.594;2022-10-04T20:00:33;96208.50;;;12.31;67.39
23172;BME280;11754;42.664;23.594;2022-10-04T20:03:00;96217.69;;;12.18;67.78
23172;BME280;11754;42.664;23.594;2022-10-04T20:05:25;96212.38;;;12.10;67.99
23172;BME280;11754;42.664;23.594;2022-10-04T20:07:56;96202.06;;;11.99;68.43
23172;BME280;11754;42.664;23.594;2022-10-04T20:10:33;96218.72;;;11.91;68.76
23172;BME280;11754;42.664;23.594;2022-10-04T20:18:01;96223.72;;;11.76;69.06
23172;BME280;11754;42.664;23.594;2022-10-04T20:23:09;96231.22;;;11.63;69.65
23172;BME280;11754;42.664;23.594;2022-10-04T20:28:07;96229.50;;;11.54;69.76
23172;BME280;11754;42.664;23.594;2022-10-04T20:30:57;96236.44;;;11.55;69.80
23172;BME280;11754;42.664;23.594;2022-10-04T20:38:47;96237.59;;;11.35;70.30
23172;BME280;11754;42.664;23.594;2022-10-04T20:43:57;96247.63;;;11.31;70.49
23172;BME280;11754;42.664;23.594;2022-10-04T20:46:48;96245.59;;;11.25;70.23
23172;BME280;11754;42.664;23.594;2022-10-04T20:49:16;96257.00;;;11.25;70.05
23172;BME280;11754;42.664;23.594;2022-10-04T20:51:47;96251.34;;;11.20;70.34
23172;BME280;11754;42.664;23.594;2022-10-04T20:54:16;96258.34;;;11.12;70.70
23172;BME280;11754;42.664;23.594;2022-10-04T20:56:45;96264.22;;;11.05;71.00
23172;BME280;11754;42.664;23.594;2022-10-04T20:59:14;96249.50;;;11.03;70.83
23172;BME280;11754;42.664;23.594;2022-10-04T21:01:40;96263.03;;;11.00;70.97
23172;BME280;11754;42.664;23.594;2022-10-04T21:04:27;96261.28;;;10.91;71.37
23172;BME280;11754;42.664;23.594;2022-10-04T21:07:22;96263.38;;;10.87;71.31
23172;BME280;11754;42.664;23.594;2022-10-04T21:09:49;96263.13;;;10.80;71.75
23172;BME280;11754;42.664;23.594;2022-10-04T21:15:21;96269.69;;;10.76;71.68
23172;BME280;11754;42.664;23.594;2022-10-04T21:18:07;96261.69;;;10.68;71.38
23172;BME280;11754;42.664;23.594;2022-10-04T21:20:42;96265.75;;;10.63;71.92
23172;BME280;11754;42.664;23.594;2022-10-04T21:23:15;96271.47;;;10.58;71.63
23172;BME280;11754;42.664;23.594;2022-10-04T21:25:41;96278.00;;;10.54;71.99
23172;BME280;11754;42.664;23.594;2022-10-04T21:28:23;96281.22;;;10.48;71.81
23172;BME280;11754;42.664;23.594;2022-10-04T21:30:53;96277.50;;;10.41;71.71
23172;BME280;11754;42.664;23.594;2022-10-04T21:33:18;96285.72;;;10.38;71.69
23172;BME280;11754;42.664;23.594;2022-10-04T21:35:44;96286.31;;;10.31;71.88
23172;BME280;11754;42.664;23.594;2022-10-04T21:38:09;96281.84;;;10.22;71.36
23172;BME280;11754;42.664;23.594;2022-10-04T21:40:35;96278.84;;;10.17;70.93
23172;BME280;11754;42.664;23.594;2022-10-04T21:43:00;96279.41;;;10.11;70.89
23172;BME280;11754;42.664;23.594;2022-10-04T21:45:25;96273.44;;;10.09;70.75
23172;BME280;11754;42.664;23.594;2022-10-04T21:47:51;96283.03;;;9.91;71.87
23172;BME280;11754;42.664;23.594;2022-10-04T21:50:16;96293.09;;;9.77;72.01
23172;BME280;11754;42.664;23.594;2022-10-04T21:52:41;96287.53;;;9.71;72.19
23172;BME280;11754;42.664;23.594;2022-10-04T21:55:07;96280.03;;;9.66;72.25
23172;BME280;11754;42.664;23.594;2022-10-04T21:57:34;96284.19;;;9.59;72.17
23172;BME280;11754;42.664;23.594;2022-10-04T22:00:00;96284.50;;;9.56;72.32
23172;BME280;11754;42.664;23.594;2022-10-04T22:02:25;96283.09;;;9.52;71.99
23172;BME280;11754;42.664;23.594;2022-10-04T22:04:50;96287.00;;;9.48;71.89
23172;BME280;11754;42.664;23.594;2022-10-04T22:07:16;96290.88;;;9.44;72.50
23172;BME280;11754;42.664;23.594;2022-10-04T22:09:41;96294.47;;;9.43;72.33
23172;BME280;11754;42.664;23.594;2022-10-04T22:12:06;96291.16;;;9.41;72.49
23172;BME280;11754;42.664;23.594;2022-10-04T22:14:32;96305.28;;;9.39;72.68
23172;BME280;11754;42.664;23.594;2022-10-04T22:16:57;96305.56;;;9.36;73.02
23172;BME280;11754;42.664;23.594;2022-10-04T22:19:23;96293.66;;;9.32;72.97
23172;BME280;11754;42.664;23.594;2022-10-04T22:21:48;96309.19;;;9.35;72.76
23172;BME280;11754;42.664;23.594;2022-10-04T22:24:18;96305.00;;;9.33;72.42
23172;BME280;11754;42.664;23.594;2022-10-04T22:26:44;96307.53;;;9.34;72.18
23172;BME280;11754;42.664;23.594;2022-10-04T22:29:14;96304.59;;;9.28;72.41
23172;BME280;11754;42.664;23.594;2022-10-04T22:31:40;96305.84;;;9.24;72.73
23172;BME280;11754;42.664;23.594;2022-10-04T22:34:15;96310.56;;;9.20;72.42
23172;BME280;11754;42.664;23.594;2022-10-04T22:36:41;96306.09;;;9.11;73.23
23172;BME280;11754;42.664;23.594;2022-10-04T22:39:12;96317.72;;;9.08;73.16
23172;BME280;11754;42.664;23.594;2022-10-04T22:41:46;96310.41;;;9.02;73.09
23172;BME280;11754;42.664;23.594;2022-10-04T22:46:52;96317.16;;;9.05;73.08
23172;BME280;11754;42.664;23.594;2022-10-04T22:49:27;96313.84;;;9.03;73.19
23172;BME280;11754;42.664;23.594;2022-10-04T22:51:55;96316.91;;;8.98;73.19
23172;BME280;11754;42.664;23.594;2022-10-04T22:54:24;96318.81;;;8.96;73.04
23172;BME280;11754;42.664;23.594;2022-10-04T22:56:50;96315.78;;;8.91;73.64
23172;BME280;11754;42.664;23.594;2022-10-04T22:59:18;96325.19;;;8.94;73.33
23172;BME280;11754;42.664;23.594;2022-10-04T23:01:45;96323.53;;;8.93;73.42
23172;BME280;11754;42.664;23.594;2022-10-04T23:04:16;96322.13;;;8.88;73.54
23172;BME280;11754;42.664;23.594;2022-10-04T23:06:43;96332.78;;;8.87;73.65
23172;BME280;11754;42.664;23.594;2022-10-04T23:09:09;96327.09;;;8.82;73.83
23172;BME280;11754;42.664;23.594;2022-10-04T23:11:34;96325.72;;;8.78;74.19
23172;BME280;11754;42.664;23.594;2022-10-04T23:14:00;96311.84;;;8.66;74.27